sensor_id;sensor_type;location;lat;lon;timestamp;P1;durP1;ratioP1;P2;durP2;ratioP2
71806;SDS011;59655;42.590;23.364;2023-01-08T00:00:06;13.30;;;5.15;;
71806;SDS011;59655;42.590;23.364;2023-01-08T00:02:32;15.57;;;6.43;;
71806;SDS011;59655;42.590;23.364;2023-01-08T00:04:57;20.75;;;12.32;;
71806;SDS011;59655;42.590;23.364;2023-01-08T00:07:22;18.25;;;9.00;;
71806;SDS011;59655;42.590;23.364;2023-01-08T00:09:48;38.65;;;14.85;;
71806;SDS011;59655;42.590;23.364;2023-01-08T00:12:14;16.30;;;6.30;;
71806;SDS011;59655;42.590;23.364;2023-01-08T00:14:40;13.88;;;6.00;;
71806;SDS011;59655;42.590;23.364;2023-01-08T00:17:05;12.75;;;5.45;;
71806;SDS011;59655;42.590;23.364;2023-01-08T00:19:32;13.30;;;5.32;;
71806;SDS011;59655;42.590;23.364;2023-01-08T00:21:58;16.15;;;7.22;;
71806;SDS011;59655;42.590;23.364;2023-01-08T00:24:23;11.73;;;5.15;;
71806;SDS011;59655;42.590;23.364;2023-01-08T00:26:49;11.00;;;4.78;;
71806;SDS011;59655;42.590;23.364;2023-01-08T00:29:14;10.95;;;4.97;;
71806;SDS011;59655;42.590;23.364;2023-01-08T00:31:40;11.00;;;4.10;;
71806;SDS011;59655;42.590;23.364;2023-01-08T00:34:05;17.48;;;7.43;;
71806;SDS011;59655;42.590;23.364;2023-01-08T00:36:31;16.10;;;7.65;;
71806;SDS011;59655;42.590;23.364;2023-01-08T00:38:57;19.42;;;8.65;;
71806;SDS011;59655;42.590;23.364;2023-01-08T00:41:23;21.95;;;9.23;;
71806;SDS011;59655;42.590;23.364;2023-01-08T00:43:48;26.98;;;10.98;;
71806;SDS011;59655;42.590;23.364;2023-01-08T00:46:14;26.23;;;10.93;;
71806;SDS011;59655;42.590;23.364;2023-01-08T00:48:39;29.67;;;11.82;;
71806;SDS011;59655;42.590;23.364;2023-01-08T00:51:05;31.15;;;11.38;;
71806;SDS011;59655;42.590;23.364;2023-01-08T00:53:31;18.85;;;7.75;;
71806;SDS011;59655;42.590;23.364;2023-01-08T00:56:01;12.13;;;4.82;;
71806;SDS011;59655;42.590;23.364;2023-01-08T00:58:27;9.10;;;3.90;;
71806;SDS011;59655;42.590;23.364;2023-01-08T01:00:53;9.85;;;4.28;;
71806;SDS011;59655;42.590;23.364;2023-01-08T01:03:18;10.13;;;3.45;;
71806;SDS011;59655;42.590;23.364;2023-01-08T01:05:44;5.80;;;2.83;;
71806;SDS011;59655;42.590;23.364;2023-01-08T01:08:09;8.30;;;3.90;;
71806;SDS011;59655;42.590;23.364;2023-01-08T01:10:36;8.38;;;3.78;;
71806;SDS011;59655;42.590;23.364;2023-01-08T01:13:03;9.23;;;4.32;;
71806;SDS011;59655;42.590;23.364;2023-01-08T01:15:28;12.00;;;5.30;;
71806;SDS011;59655;42.590;23.364;2023-01-08T01:17:53;10.05;;;4.22;;
71806;SDS011;59655;42.590;23.364;2023-01-08T01:20:19;10.27;;;4.65;;
71806;SDS011;59655;42.590;23.364;2023-01-08T01:22:44;11.27;;;4.80;;
71806;SDS011;59655;42.590;23.364;2023-01-08T01:25:10;12.93;;;5.68;;
71806;SDS011;59655;42.590;23.364;2023-01-08T01:27:35;8.32;;;4.57;;
71806;SDS011;59655;42.590;23.364;2023-01-08T01:30:01;9.88;;;4.43;;
71806;SDS011;59655;42.590;23.364;2023-01-08T01:32:27;10.38;;;4.88;;
71806;SDS011;59655;42.590;23.364;2023-01-08T01:34:53;16.67;;;7.65;;
71806;SDS011;59655;42.590;23.364;2023-01-08T01:37:18;18.63;;;7.28;;
71806;SDS011;59655;42.590;23.364;2023-01-08T01:39:43;16.85;;;7.63;;
71806;SDS011;59655;42.590;23.364;2023-01-08T01:42:18;11.93;;;5.40;;
71806;SDS011;59655;42.590;23.364;2023-01-08T01:45:13;11.55;;;5.03;;
71806;SDS011;59655;42.590;23.364;2023-01-08T01:50:31;9.07;;;3.97;;
71806;SDS011;59655;42.590;23.364;2023-01-08T01:53:02;14.45;;;6.35;;
71806;SDS011;59655;42.590;23.364;2023-01-08T01:55:33;14.13;;;6.70;;
71806;SDS011;59655;42.590;23.364;2023-01-08T02:00:50;12.35;;;5.80;;
71806;SDS011;59655;42.590;23.364;2023-01-08T02:03:19;10.32;;;4.15;;
71806;SDS011;59655;42.590;23.364;2023-01-08T02:05:50;6.75;;;3.58;;
71806;SDS011;59655;42.590;23.364;2023-01-08T02:11:02;6.40;;;4.00;;
71806;SDS011;59655;42.590;23.364;2023-01-08T02:13:35;6.28;;;3.88;;
71806;SDS011;59655;42.590;23.364;2023-01-08T02:18:43;8.30;;;3.22;;
71806;SDS011;59655;42.590;23.364;2023-01-08T02:21:14;8.48;;;3.47;;
71806;SDS011;59655;42.590;23.364;2023-01-08T02:23:59;7.80;;;3.92;;
71806;SDS011;59655;42.590;23.364;2023-01-08T02:31:30;10.23;;;4.93;;
71806;SDS011;59655;42.590;23.364;2023-01-08T02:33:57;6.65;;;3.03;;
71806;SDS011;59655;42.590;23.364;2023-01-08T02:47:33;8.73;;;3.05;;
71806;SDS011;59655;42.590;23.364;2023-01-08T02:50:45;10.98;;;4.07;;
71806;SDS011;59655;42.590;23.364;2023-01-08T02:55:47;10.70;;;3.63;;
71806;SDS011;59655;42.590;23.364;2023-01-08T02:58:16;9.73;;;3.65;;
71806;SDS011;59655;42.590;23.364;2023-01-08T03:00:43;16.60;;;5.10;;
71806;SDS011;59655;42.590;23.364;2023-01-08T03:05:42;8.73;;;3.22;;
71806;SDS011;59655;42.590;23.364;2023-01-08T03:08:12;8.82;;;3.80;;
71806;SDS011;59655;42.590;23.364;2023-01-08T03:10:38;7.68;;;2.83;;
71806;SDS011;59655;42.590;23.364;2023-01-08T03:13:11;8.82;;;3.42;;
71806;SDS011;59655;42.590;23.364;2023-01-08T03:15:46;5.55;;;2.20;;
71806;SDS011;59655;42.590;23.364;2023-01-08T03:18:17;9.35;;;3.25;;
71806;SDS011;59655;42.590;23.364;2023-01-08T03:20:50;8.68;;;3.50;;
71806;SDS011;59655;42.590;23.364;2023-01-08T03:23:16;10.95;;;4.15;;
71806;SDS011;59655;42.590;23.364;2023-01-08T03:28:11;5.18;;;2.40;;
71806;SDS011;59655;42.590;23.364;2023-01-08T03:30:41;4.57;;;2.10;;
71806;SDS011;59655;42.590;23.364;2023-01-08T03:33:08;4.95;;;2.90;;
71806;SDS011;59655;42.590;23.364;2023-01-08T03:35:36;4.75;;;2.22;;
71806;SDS011;59655;42.590;23.364;2023-01-08T03:38:17;4.07;;;2.08;;
71806;SDS011;59655;42.590;23.364;2023-01-08T03:40:45;5.95;;;2.67;;
71806;SDS011;59655;42.590;23.364;2023-01-08T03:43:15;5.07;;;2.92;;
71806;SDS011;59655;42.590;23.364;2023-01-08T03:45:43;5.90;;;2.53;;
71806;SDS011;59655;42.590;23.364;2023-01-08T03:48:29;4.85;;;2.70;;
71806;SDS011;59655;42.590;23.364;2023-01-08T03:50:57;5.47;;;2.97;;
71806;SDS011;59655;42.590;23.364;2023-01-08T03:53:23;5.90;;;2.50;;
71806;SDS011;59655;42.590;23.364;2023-01-08T03:55:49;4.40;;;2.65;;
71806;SDS011;59655;42.590;23.364;2023-01-08T03:58:14;4.32;;;2.50;;
71806;SDS011;59655;42.590;23.364;2023-01-08T04:00:40;3.85;;;2.22;;
71806;SDS011;59655;42.590;23.364;2023-01-08T04:03:05;5.93;;;2.53;;
71806;SDS011;59655;42.590;23.364;2023-01-08T04:05:31;6.05;;;2.80;;
71806;SDS011;59655;42.590;23.364;2023-01-08T04:07:56;5.65;;;2.50;;
71806;SDS011;59655;42.590;23.364;2023-01-08T04:10:22;5.88;;;3.22;;
71806;SDS011;59655;42.590;23.364;2023-01-08T04:12:49;4.13;;;2.35;;
71806;SDS011;59655;42.590;23.364;2023-01-08T04:15:14;3.80;;;1.60;;
71806;SDS011;59655;42.590;23.364;2023-01-08T04:17:40;4.20;;;2.10;;
71806;SDS011;59655;42.590;23.364;2023-01-08T04:20:06;4.97;;;2.13;;
71806;SDS011;59655;42.590;23.364;2023-01-08T04:22:32;4.65;;;2.30;;
71806;SDS011;59655;42.590;23.364;2023-01-08T04:24:57;6.05;;;3.42;;
71806;SDS011;59655;42.590;23.364;2023-01-08T04:27:23;4.55;;;2.50;;
71806;SDS011;59655;42.590;23.364;2023-01-08T04:29:48;4.95;;;3.00;;
71806;SDS011;59655;42.590;23.364;2023-01-08T04:32:14;6.03;;;3.47;;
71806;SDS011;59655;42.590;23.364;2023-01-08T04:34:39;6.97;;;3.60;;
71806;SDS011;59655;42.590;23.364;2023-01-08T04:37:04;6.90;;;3.70;;
71806;SDS011;59655;42.590;23.364;2023-01-08T04:39:30;5.60;;;2.50;;
71806;SDS011;59655;42.590;23.364;2023-01-08T04:41:55;8.90;;;5.30;;
71806;SDS011;59655;42.590;23.364;2023-01-08T04:44:21;6.93;;;4.18;;
71806;SDS011;59655;42.590;23.364;2023-01-08T04:46:46;10.85;;;4.03;;
71806;SDS011;59655;42.590;23.364;2023-01-08T04:49:12;7.78;;;3.40;;
71806;SDS011;59655;42.590;23.364;2023-01-08T04:51:37;6.50;;;3.00;;
71806;SDS011;59655;42.590;23.364;2023-01-08T04:54:03;6.93;;;3.53;;
71806;SDS011;59655;42.590;23.364;2023-01-08T04:56:29;6.20;;;3.60;;
71806;SDS011;59655;42.590;23.364;2023-01-08T04:58:55;6.15;;;3.80;;
71806;SDS011;59655;42.590;23.364;2023-01-08T05:01:21;12.40;;;6.35;;
71806;SDS011;59655;42.590;23.364;2023-01-08T05:03:55;23.52;;;12.23;;
71806;SDS011;59655;42.590;23.364;2023-01-08T05:06:23;32.55;;;18.73;;
71806;SDS011;59655;42.590;23.364;2023-01-08T05:08:49;13.05;;;6.82;;
71806;SDS011;59655;42.590;23.364;2023-01-08T05:11:15;12.48;;;7.65;;
71806;SDS011;59655;42.590;23.364;2023-01-08T05:13:40;16.63;;;9.63;;
71806;SDS011;59655;42.590;23.364;2023-01-08T05:16:06;15.82;;;9.35;;
71806;SDS011;59655;42.590;23.364;2023-01-08T05:18:31;15.23;;;9.52;;
71806;SDS011;59655;42.590;23.364;2023-01-08T05:21:00;13.02;;;8.93;;
71806;SDS011;59655;42.590;23.364;2023-01-08T05:23:27;13.95;;;8.95;;
71806;SDS011;59655;42.590;23.364;2023-01-08T05:25:57;14.00;;;9.23;;
71806;SDS011;59655;42.590;23.364;2023-01-08T05:28:24;14.48;;;9.13;;
71806;SDS011;59655;42.590;23.364;2023-01-08T05:30:50;13.02;;;8.65;;
71806;SDS011;59655;42.590;23.364;2023-01-08T05:33:16;13.07;;;8.48;;
71806;SDS011;59655;42.590;23.364;2023-01-08T05:35:42;10.43;;;5.78;;
71806;SDS011;59655;42.590;23.364;2023-01-08T05:38:07;10.10;;;5.60;;
71806;SDS011;59655;42.590;23.364;2023-01-08T05:40:32;10.02;;;5.07;;
71806;SDS011;59655;42.590;23.364;2023-01-08T05:42:58;8.50;;;5.72;;
71806;SDS011;59655;42.590;23.364;2023-01-08T05:45:24;6.78;;;3.70;;
71806;SDS011;59655;42.590;23.364;2023-01-08T05:47:50;9.00;;;4.07;;
71806;SDS011;59655;42.590;23.364;2023-01-08T05:50:15;7.18;;;3.42;;
71806;SDS011;59655;42.590;23.364;2023-01-08T05:52:41;12.02;;;5.43;;
71806;SDS011;59655;42.590;23.364;2023-01-08T05:55:06;6.90;;;4.38;;
71806;SDS011;59655;42.590;23.364;2023-01-08T05:57:32;13.35;;;6.30;;
71806;SDS011;59655;42.590;23.364;2023-01-08T05:59:58;10.80;;;5.40;;
71806;SDS011;59655;42.590;23.364;2023-01-08T06:02:23;11.90;;;5.32;;
71806;SDS011;59655;42.590;23.364;2023-01-08T06:04:48;22.00;;;8.90;;
71806;SDS011;59655;42.590;23.364;2023-01-08T06:07:14;25.38;;;11.82;;
71806;SDS011;59655;42.590;23.364;2023-01-08T06:09:40;24.38;;;12.30;;
71806;SDS011;59655;42.590;23.364;2023-01-08T06:12:05;19.05;;;8.15;;
71806;SDS011;59655;42.590;23.364;2023-01-08T06:14:31;24.25;;;11.75;;
71806;SDS011;59655;42.590;23.364;2023-01-08T06:16:56;22.35;;;11.20;;
71806;SDS011;59655;42.590;23.364;2023-01-08T06:19:22;28.33;;;16.00;;
71806;SDS011;59655;42.590;23.364;2023-01-08T06:21:47;21.63;;;10.25;;
71806;SDS011;59655;42.590;23.364;2023-01-08T06:24:13;19.55;;;9.50;;
71806;SDS011;59655;42.590;23.364;2023-01-08T06:26:38;18.10;;;10.50;;
71806;SDS011;59655;42.590;23.364;2023-01-08T06:29:04;63.88;;;27.17;;
71806;SDS011;59655;42.590;23.364;2023-01-08T06:31:29;32.33;;;15.93;;
71806;SDS011;59655;42.590;23.364;2023-01-08T06:33:54;23.95;;;10.45;;
71806;SDS011;59655;42.590;23.364;2023-01-08T06:36:20;18.20;;;10.05;;
71806;SDS011;59655;42.590;23.364;2023-01-08T06:38:45;16.90;;;9.77;;
71806;SDS011;59655;42.590;23.364;2023-01-08T06:41:11;24.50;;;15.00;;
71806;SDS011;59655;42.590;23.364;2023-01-08T06:43:36;28.90;;;17.60;;
71806;SDS011;59655;42.590;23.364;2023-01-08T06:46:05;19.52;;;12.23;;
71806;SDS011;59655;42.590;23.364;2023-01-08T06:48:32;14.63;;;9.90;;
71806;SDS011;59655;42.590;23.364;2023-01-08T06:50:59;18.13;;;11.43;;
71806;SDS011;59655;42.590;23.364;2023-01-08T06:53:27;18.20;;;11.52;;
71806;SDS011;59655;42.590;23.364;2023-01-08T06:55:53;14.88;;;9.15;;
71806;SDS011;59655;42.590;23.364;2023-01-08T06:58:24;14.48;;;8.93;;
71806;SDS011;59655;42.590;23.364;2023-01-08T07:00:51;18.67;;;10.90;;
71806;SDS011;59655;42.590;23.364;2023-01-08T07:03:16;18.35;;;11.85;;
71806;SDS011;59655;42.590;23.364;2023-01-08T07:05:42;26.13;;;12.13;;
71806;SDS011;59655;42.590;23.364;2023-01-08T07:08:13;22.10;;;11.98;;
71806;SDS011;59655;42.590;23.364;2023-01-08T07:10:40;13.65;;;6.75;;
71806;SDS011;59655;42.590;23.364;2023-01-08T07:13:06;13.25;;;6.30;;
71806;SDS011;59655;42.590;23.364;2023-01-08T07:15:34;10.35;;;5.80;;
71806;SDS011;59655;42.590;23.364;2023-01-08T07:18:03;12.65;;;5.65;;
71806;SDS011;59655;42.590;23.364;2023-01-08T07:20:30;15.10;;;7.60;;
71806;SDS011;59655;42.590;23.364;2023-01-08T07:22:59;17.35;;;8.00;;
71806;SDS011;59655;42.590;23.364;2023-01-08T07:25:34;19.20;;;9.88;;
71806;SDS011;59655;42.590;23.364;2023-01-08T07:28:00;16.27;;;7.60;;
71806;SDS011;59655;42.590;23.364;2023-01-08T07:30:26;15.98;;;6.65;;
71806;SDS011;59655;42.590;23.364;2023-01-08T07:32:52;13.27;;;6.40;;
71806;SDS011;59655;42.590;23.364;2023-01-08T07:35:17;11.32;;;6.15;;
71806;SDS011;59655;42.590;23.364;2023-01-08T07:37:43;10.13;;;5.38;;
71806;SDS011;59655;42.590;23.364;2023-01-08T07:40:09;11.45;;;5.13;;
71806;SDS011;59655;42.590;23.364;2023-01-08T07:42:35;11.90;;;5.25;;
71806;SDS011;59655;42.590;23.364;2023-01-08T07:45:01;7.93;;;4.20;;
71806;SDS011;59655;42.590;23.364;2023-01-08T07:47:26;10.93;;;4.07;;
71806;SDS011;59655;42.590;23.364;2023-01-08T07:49:52;8.35;;;3.60;;
71806;SDS011;59655;42.590;23.364;2023-01-08T07:52:17;7.95;;;3.38;;
71806;SDS011;59655;42.590;23.364;2023-01-08T07:54:43;8.40;;;3.88;;
71806;SDS011;59655;42.590;23.364;2023-01-08T07:57:08;6.28;;;3.58;;
71806;SDS011;59655;42.590;23.364;2023-01-08T07:59:33;10.98;;;4.55;;
71806;SDS011;59655;42.590;23.364;2023-01-08T08:01:59;8.20;;;4.03;;
71806;SDS011;59655;42.590;23.364;2023-01-08T08:04:24;11.05;;;4.40;;
71806;SDS011;59655;42.590;23.364;2023-01-08T08:06:50;9.43;;;5.30;;
71806;SDS011;59655;42.590;23.364;2023-01-08T08:09:15;10.75;;;5.40;;
71806;SDS011;59655;42.590;23.364;2023-01-08T08:11:41;9.57;;;4.03;;
71806;SDS011;59655;42.590;23.364;2023-01-08T08:14:06;7.47;;;3.63;;
71806;SDS011;59655;42.590;23.364;2023-01-08T08:16:32;7.60;;;3.35;;
71806;SDS011;59655;42.590;23.364;2023-01-08T08:18:58;7.25;;;3.67;;
71806;SDS011;59655;42.590;23.364;2023-01-08T08:21:24;6.00;;;3.15;;
71806;SDS011;59655;42.590;23.364;2023-01-08T08:23:50;5.95;;;3.47;;
71806;SDS011;59655;42.590;23.364;2023-01-08T08:26:15;6.35;;;3.67;;
71806;SDS011;59655;42.590;23.364;2023-01-08T08:28:42;11.23;;;4.18;;
71806;SDS011;59655;42.590;23.364;2023-01-08T08:31:07;10.32;;;4.68;;
71806;SDS011;59655;42.590;23.364;2023-01-08T08:33:33;9.65;;;4.55;;
71806;SDS011;59655;42.590;23.364;2023-01-08T08:36:00;10.82;;;4.93;;
71806;SDS011;59655;42.590;23.364;2023-01-08T08:38:25;10.27;;;4.95;;
71806;SDS011;59655;42.590;23.364;2023-01-08T08:40:51;7.32;;;4.10;;
71806;SDS011;59655;42.590;23.364;2023-01-08T08:43:17;9.00;;;4.32;;
71806;SDS011;59655;42.590;23.364;2023-01-08T08:45:42;6.72;;;4.15;;
71806;SDS011;59655;42.590;23.364;2023-01-08T08:48:08;8.88;;;4.63;;
71806;SDS011;59655;42.590;23.364;2023-01-08T08:50:35;7.28;;;4.07;;
71806;SDS011;59655;42.590;23.364;2023-01-08T08:53:02;8.18;;;3.97;;
71806;SDS011;59655;42.590;23.364;2023-01-08T08:55:29;7.20;;;3.63;;
71806;SDS011;59655;42.590;23.364;2023-01-08T08:58:00;7.35;;;3.45;;
71806;SDS011;59655;42.590;23.364;2023-01-08T09:00:46;8.55;;;3.42;;
71806;SDS011;59655;42.590;23.364;2023-01-08T09:03:12;7.53;;;3.67;;
71806;SDS011;59655;42.590;23.364;2023-01-08T09:05:38;7.15;;;3.38;;
71806;SDS011;59655;42.590;23.364;2023-01-08T09:08:04;9.35;;;4.13;;
71806;SDS011;59655;42.590;23.364;2023-01-08T09:10:31;10.85;;;6.18;;
71806;SDS011;59655;42.590;23.364;2023-01-08T09:12:56;9.88;;;5.57;;
71806;SDS011;59655;42.590;23.364;2023-01-08T09:15:22;9.55;;;5.30;;
71806;SDS011;59655;42.590;23.364;2023-01-08T09:17:53;11.55;;;5.65;;
71806;SDS011;59655;42.590;23.364;2023-01-08T09:20:20;10.27;;;5.95;;
71806;SDS011;59655;42.590;23.364;2023-01-08T09:22:46;10.20;;;5.95;;
71806;SDS011;59655;42.590;23.364;2023-01-08T09:25:12;12.13;;;6.30;;
71806;SDS011;59655;42.590;23.364;2023-01-08T09:27:37;10.43;;;6.10;;
71806;SDS011;59655;42.590;23.364;2023-01-08T09:30:02;11.23;;;5.13;;
71806;SDS011;59655;42.590;23.364;2023-01-08T09:32:28;10.18;;;6.07;;
71806;SDS011;59655;42.590;23.364;2023-01-08T09:34:54;11.23;;;5.45;;
71806;SDS011;59655;42.590;23.364;2023-01-08T09:37:19;11.10;;;5.90;;
71806;SDS011;59655;42.590;23.364;2023-01-08T09:39:47;13.10;;;5.95;;
71806;SDS011;59655;42.590;23.364;2023-01-08T09:42:13;10.52;;;5.72;;
71806;SDS011;59655;42.590;23.364;2023-01-08T09:44:40;9.40;;;5.18;;
71806;SDS011;59655;42.590;23.364;2023-01-08T09:47:16;7.57;;;4.63;;
71806;SDS011;59655;42.590;23.364;2023-01-08T09:49:44;7.80;;;4.28;;
71806;SDS011;59655;42.590;23.364;2023-01-08T09:52:11;8.52;;;4.30;;
71806;SDS011;59655;42.590;23.364;2023-01-08T09:54:38;9.18;;;3.80;;
71806;SDS011;59655;42.590;23.364;2023-01-08T09:57:09;7.70;;;3.63;;
71806;SDS011;59655;42.590;23.364;2023-01-08T09:59:46;6.25;;;2.80;;
71806;SDS011;59655;42.590;23.364;2023-01-08T10:02:22;6.65;;;3.67;;
71806;SDS011;59655;42.590;23.364;2023-01-08T10:04:55;8.65;;;3.75;;
71806;SDS011;59655;42.590;23.364;2023-01-08T10:07:25;10.32;;;4.45;;
71806;SDS011;59655;42.590;23.364;2023-01-08T10:09:52;7.07;;;4.07;;
71806;SDS011;59655;42.590;23.364;2023-01-08T10:12:28;10.48;;;6.35;;
71806;SDS011;59655;42.590;23.364;2023-01-08T10:15:00;12.50;;;6.57;;
71806;SDS011;59655;42.590;23.364;2023-01-08T10:17:39;10.75;;;5.78;;
71806;SDS011;59655;42.590;23.364;2023-01-08T10:22:45;7.50;;;3.50;;
71806;SDS011;59655;42.590;23.364;2023-01-08T10:27:57;6.38;;;3.40;;
71806;SDS011;59655;42.590;23.364;2023-01-08T10:37:57;17.17;;;9.20;;
71806;SDS011;59655;42.590;23.364;2023-01-08T10:40:34;19.02;;;11.30;;
71806;SDS011;59655;42.590;23.364;2023-01-08T10:43:08;22.13;;;11.52;;
71806;SDS011;59655;42.590;23.364;2023-01-08T10:45:36;18.60;;;10.52;;
71806;SDS011;59655;42.590;23.364;2023-01-08T10:48:03;20.83;;;11.13;;
71806;SDS011;59655;42.590;23.364;2023-01-08T10:52:58;21.02;;;11.00;;
71806;SDS011;59655;42.590;23.364;2023-01-08T10:57:55;19.97;;;11.13;;
71806;SDS011;59655;42.590;23.364;2023-01-08T11:00:25;24.05;;;11.20;;
71806;SDS011;59655;42.590;23.364;2023-01-08T11:02:53;23.92;;;10.60;;
71806;SDS011;59655;42.590;23.364;2023-01-08T11:05:27;21.73;;;11.68;;
71806;SDS011;59655;42.590;23.364;2023-01-08T11:07:56;19.05;;;11.00;;
71806;SDS011;59655;42.590;23.364;2023-01-08T11:10:24;19.75;;;11.38;;
71806;SDS011;59655;42.590;23.364;2023-01-08T11:13:00;21.95;;;11.35;;
71806;SDS011;59655;42.590;23.364;2023-01-08T11:20:49;23.67;;;12.50;;
71806;SDS011;59655;42.590;23.364;2023-01-08T11:28:32;21.70;;;11.93;;
71806;SDS011;59655;42.590;23.364;2023-01-08T11:31:12;24.77;;;13.35;;
71806;SDS011;59655;42.590;23.364;2023-01-08T11:33:41;23.05;;;12.68;;
71806;SDS011;59655;42.590;23.364;2023-01-08T11:36:22;24.52;;;13.45;;
71806;SDS011;59655;42.590;23.364;2023-01-08T11:38:54;24.30;;;12.82;;
71806;SDS011;59655;42.590;23.364;2023-01-08T11:41:26;24.20;;;13.63;;
71806;SDS011;59655;42.590;23.364;2023-01-08T11:44:10;24.23;;;12.95;;
71806;SDS011;59655;42.590;23.364;2023-01-08T11:59:42;23.25;;;14.45;;
71806;SDS011;59655;42.590;23.364;2023-01-08T12:05:24;28.05;;;14.68;;
71806;SDS011;59655;42.590;23.364;2023-01-08T12:10:48;27.38;;;15.45;;
71806;SDS011;59655;42.590;23.364;2023-01-08T12:19:19;25.02;;;14.38;;
71806;SDS011;59655;42.590;23.364;2023-01-08T12:22:33;29.33;;;15.38;;
71806;SDS011;59655;42.590;23.364;2023-01-08T12:35:38;21.92;;;13.32;;
71806;SDS011;59655;42.590;23.364;2023-01-08T12:38:10;22.00;;;12.73;;
71806;SDS011;59655;42.590;23.364;2023-01-08T12:44:08;20.48;;;11.77;;
71806;SDS011;59655;42.590;23.364;2023-01-08T12:46:32;22.15;;;11.63;;
71806;SDS011;59655;42.590;23.364;2023-01-08T12:49:00;24.63;;;12.52;;
71806;SDS011;59655;42.590;23.364;2023-01-08T12:51:38;21.90;;;12.25;;
71806;SDS011;59655;42.590;23.364;2023-01-08T13:04:47;23.70;;;13.07;;
71806;SDS011;59655;42.590;23.364;2023-01-08T13:07:26;25.73;;;13.15;;
71806;SDS011;59655;42.590;23.364;2023-01-08T13:10:02;20.27;;;12.50;;
71806;SDS011;59655;42.590;23.364;2023-01-08T13:12:34;22.88;;;11.70;;
71806;SDS011;59655;42.590;23.364;2023-01-08T13:15:02;24.23;;;12.80;;
71806;SDS011;59655;42.590;23.364;2023-01-08T13:17:28;21.65;;;12.93;;
71806;SDS011;59655;42.590;23.364;2023-01-08T13:19:57;24.38;;;13.43;;
71806;SDS011;59655;42.590;23.364;2023-01-08T13:22:29;26.40;;;13.23;;
71806;SDS011;59655;42.590;23.364;2023-01-08T13:25:07;21.73;;;13.18;;
71806;SDS011;59655;42.590;23.364;2023-01-08T13:27:35;23.17;;;14.10;;
71806;SDS011;59655;42.590;23.364;2023-01-08T13:30:00;27.45;;;14.63;;
71806;SDS011;59655;42.590;23.364;2023-01-08T13:37:43;24.63;;;14.55;;
71806;SDS011;59655;42.590;23.364;2023-01-08T13:45:38;28.80;;;16.33;;
71806;SDS011;59655;42.590;23.364;2023-01-08T13:48:05;32.65;;;16.85;;
71806;SDS011;59655;42.590;23.364;2023-01-08T13:50:30;28.42;;;16.20;;
71806;SDS011;59655;42.590;23.364;2023-01-08T13:52:56;28.65;;;16.65;;
71806;SDS011;59655;42.590;23.364;2023-01-08T13:55:34;28.25;;;16.80;;
71806;SDS011;59655;42.590;23.364;2023-01-08T13:58:14;30.42;;;18.08;;
71806;SDS011;59655;42.590;23.364;2023-01-08T14:05:48;30.17;;;17.38;;
71806;SDS011;59655;42.590;23.364;2023-01-08T14:08:21;30.33;;;16.85;;
71806;SDS011;59655;42.590;23.364;2023-01-08T14:10:48;30.00;;;16.80;;
71806;SDS011;59655;42.590;23.364;2023-01-08T14:13:13;38.17;;;18.10;;
71806;SDS011;59655;42.590;23.364;2023-01-08T14:15:41;32.67;;;17.80;;
71806;SDS011;59655;42.590;23.364;2023-01-08T14:18:07;38.92;;;21.17;;
71806;SDS011;59655;42.590;23.364;2023-01-08T14:20:37;68.20;;;26.88;;
71806;SDS011;59655;42.590;23.364;2023-01-08T14:23:09;61.88;;;26.90;;
71806;SDS011;59655;42.590;23.364;2023-01-08T14:25:37;83.35;;;35.50;;
71806;SDS011;59655;42.590;23.364;2023-01-08T14:28:04;63.88;;;34.13;;
71806;SDS011;59655;42.590;23.364;2023-01-08T14:30:30;73.25;;;36.35;;
71806;SDS011;59655;42.590;23.364;2023-01-08T14:32:57;227.32;;;80.32;;
71806;SDS011;59655;42.590;23.364;2023-01-08T14:35:28;132.75;;;54.47;;
71806;SDS011;59655;42.590;23.364;2023-01-08T14:37:57;130.20;;;52.97;;
71806;SDS011;59655;42.590;23.364;2023-01-08T14:40:32;137.90;;;57.60;;
71806;SDS011;59655;42.590;23.364;2023-01-08T14:43:02;173.02;;;75.85;;
71806;SDS011;59655;42.590;23.364;2023-01-08T14:45:32;149.18;;;64.07;;
71806;SDS011;59655;42.590;23.364;2023-01-08T14:48:09;136.02;;;59.85;;
71806;SDS011;59655;42.590;23.364;2023-01-08T14:50:37;114.18;;;50.90;;
71806;SDS011;59655;42.590;23.364;2023-01-08T14:55:31;92.13;;;39.17;;
71806;SDS011;59655;42.590;23.364;2023-01-08T14:57:58;96.57;;;39.03;;
71806;SDS011;59655;42.590;23.364;2023-01-08T15:00:27;121.15;;;46.03;;
71806;SDS011;59655;42.590;23.364;2023-01-08T15:02:54;112.88;;;48.88;;
71806;SDS011;59655;42.590;23.364;2023-01-08T15:08:02;100.90;;;46.30;;
71806;SDS011;59655;42.590;23.364;2023-01-08T15:10:56;111.57;;;48.45;;
71806;SDS011;59655;42.590;23.364;2023-01-08T15:13:34;103.35;;;49.28;;
71806;SDS011;59655;42.590;23.364;2023-01-08T15:16:09;104.97;;;46.53;;
71806;SDS011;59655;42.590;23.364;2023-01-08T15:18:46;106.40;;;49.13;;
71806;SDS011;59655;42.590;23.364;2023-01-08T15:21:16;114.97;;;55.13;;
71806;SDS011;59655;42.590;23.364;2023-01-08T15:23:50;91.05;;;43.05;;
71806;SDS011;59655;42.590;23.364;2023-01-08T15:26:19;79.82;;;42.92;;
71806;SDS011;59655;42.590;23.364;2023-01-08T15:31:21;89.35;;;46.03;;
71806;SDS011;59655;42.590;23.364;2023-01-08T15:33:47;96.30;;;51.50;;
71806;SDS011;59655;42.590;23.364;2023-01-08T15:36:13;77.20;;;44.03;;
71806;SDS011;59655;42.590;23.364;2023-01-08T15:38:38;79.28;;;42.15;;
71806;SDS011;59655;42.590;23.364;2023-01-08T15:41:04;80.43;;;38.95;;
71806;SDS011;59655;42.590;23.364;2023-01-08T15:43:29;66.18;;;33.42;;
71806;SDS011;59655;42.590;23.364;2023-01-08T15:45:54;74.10;;;36.95;;
71806;SDS011;59655;42.590;23.364;2023-01-08T15:48:20;61.08;;;33.78;;
71806;SDS011;59655;42.590;23.364;2023-01-08T15:50:45;75.18;;;35.17;;
71806;SDS011;59655;42.590;23.364;2023-01-08T15:53:15;57.10;;;30.27;;
71806;SDS011;59655;42.590;23.364;2023-01-08T15:55:42;55.95;;;26.77;;
71806;SDS011;59655;42.590;23.364;2023-01-08T15:58:09;53.65;;;26.95;;
71806;SDS011;59655;42.590;23.364;2023-01-08T16:00:36;57.80;;;28.95;;
71806;SDS011;59655;42.590;23.364;2023-01-08T16:03:02;57.90;;;28.90;;
71806;SDS011;59655;42.590;23.364;2023-01-08T16:05:28;52.80;;;26.45;;
71806;SDS011;59655;42.590;23.364;2023-01-08T16:07:54;48.90;;;23.83;;
71806;SDS011;59655;42.590;23.364;2023-01-08T16:10:20;96.10;;;34.33;;
71806;SDS011;59655;42.590;23.364;2023-01-08T16:12:46;172.85;;;55.35;;
71806;SDS011;59655;42.590;23.364;2023-01-08T16:15:12;44.63;;;23.17;;
71806;SDS011;59655;42.590;23.364;2023-01-08T16:17:39;43.22;;;22.20;;
71806;SDS011;59655;42.590;23.364;2023-01-08T16:20:05;36.42;;;20.42;;
71806;SDS011;59655;42.590;23.364;2023-01-08T16:22:32;39.40;;;20.63;;
71806;SDS011;59655;42.590;23.364;2023-01-08T16:24:58;40.63;;;20.85;;
71806;SDS011;59655;42.590;23.364;2023-01-08T16:27:23;38.42;;;21.88;;
71806;SDS011;59655;42.590;23.364;2023-01-08T16:29:48;50.72;;;28.17;;
71806;SDS011;59655;42.590;23.364;2023-01-08T16:32:14;65.20;;;33.15;;
71806;SDS011;59655;42.590;23.364;2023-01-08T16:34:39;148.63;;;70.57;;
71806;SDS011;59655;42.590;23.364;2023-01-08T16:37:05;47.63;;;27.60;;
71806;SDS011;59655;42.590;23.364;2023-01-08T16:39:30;47.00;;;25.33;;
71806;SDS011;59655;42.590;23.364;2023-01-08T16:41:56;43.13;;;22.70;;